Time;durP1;ratioP1;P1;durP2;ratioP2;P2;SDS_P1;SDS_P2;PMS_P1;PMS_P2;Temp;Humidity;BMP_temperature;BMP_pressure;BME280_temperature;BME280_humidity;BME280_pressure;Samples;Min_cycle;Max_cycle;Signal;HPM_P1;HPM_P2
2022/01/07 00:00:42;;;;;;;7.53;1.40;;;;;;;;;;5115944;28;20028;-68
2022/01/07 00:03:08;;;;;;;3.17;1.30;;;;;;;;;;5115808;28;20036;-64
2022/01/07 00:05:35;;;;;;;2.88;1.30;;;;;;;;;;5115958;28;20047;-64
2022/01/07 00:08:01;;;;;;;3.40;1.42;;;;;;;;;;5100159;28;20021;-66
2022/01/07 00:10:27;;;;;;;4.88;1.20;;;;;;;;;;5062352;28;20037;-67
2022/01/07 00:12:53;;;;;;;7.65;1.50;;;;;;;;;;5086080;28;20028;-67
2022/01/07 00:15:20;;;;;;;4.22;1.08;;;;;;;;;;5087626;28;20032;-64
2022/01/07 00:17:46;;;;;;;5.32;1.30;;;;;;;;;;5084135;28;20432;-67
2022/01/07 00:20:13;;;;;;;3.63;1.30;;;;;;;;;;5086460;28;20024;-62
2022/01/07 00:22:39;;;;;;;5.68;1.50;;;;;;;;;;5081947;28;20097;-64
2022/01/07 00:25:05;;;;;;;4.68;1.67;;;;;;;;;;5083750;28;20028;-62
2022/01/07 00:27:31;;;;;;;5.78;1.17;;;;;;;;;;5085553;28;20044;-65
2022/01/07 00:29:58;;;;;;;2.90;1.27;;;;;;;;;;5061770;28;20053;-68
2022/01/07 00:32:24;;;;;;;2.90;1.02;;;;;;;;;;5083649;28;20421;-72
2022/01/07 00:34:50;;;;;;;6.75;1.38;;;;;;;;;;5086295;28;20039;-62
2022/01/07 00:37:16;;;;;;;4.00;1.30;;;;;;;;;;5085085;28;20471;-65
2022/01/07 00:39:42;;;;;;;3.35;1.20;;;;;;;;;;5081752;28;20456;-67
2022/01/07 00:42:08;;;;;;;2.53;1.30;;;;;;;;;;5084301;28;20063;-66
2022/01/07 00:44:34;;;;;;;4.53;1.30;;;;;;;;;;5067107;28;20032;-63
2022/01/07 00:47:00;;;;;;;5.47;1.30;;;;;;;;;;5081546;28;20031;-63
2022/01/07 00:49:26;;;;;;;2.28;1.30;;;;;;;;;;5085102;28;20487;-71
2022/01/07 00:51:52;;;;;;;2.47;1.00;;;;;;;;;;5083273;28;20086;-63
2022/01/07 00:54:19;;;;;;;2.38;1.02;;;;;;;;;;5063436;28;20032;-63
2022/01/07 00:56:46;;;;;;;2.75;1.27;;;;;;;;;;5083561;28;20050;-64
2022/01/07 00:59:12;;;;;;;2.22;1.15;;;;;;;;;;5089214;28;20031;-65
2022/01/07 01:01:38;;;;;;;2.90;1.20;;;;;;;;;;5083926;28;20028;-64
2022/01/07 01:04:04;;;;;;;2.28;1.30;;;;;;;;;;5085898;28;20028;-63
2022/01/07 01:06:30;;;;;;;3.20;1.00;;;;;;;;;;5060505;28;20426;-63
2022/01/07 01:08:56;;;;;;;3.72;1.50;;;;;;;;;;5083707;28;20029;-64
2022/01/07 01:11:22;;;;;;;2.22;1.05;;;;;;;;;;5066648;28;20505;-64
2022/01/07 01:13:48;;;;;;;2.75;1.23;;;;;;;;;;5092149;28;20024;-68
2022/01/07 01:16:14;;;;;;;3.33;1.30;;;;;;;;;;5094002;28;20026;-63
2022/01/07 01:18:40;;;;;;;3.35;1.42;;;;;;;;;;5094136;28;20673;-62
2022/01/07 01:21:06;;;;;;;3.22;1.20;;;;;;;;;;5093997;28;20032;-67
2022/01/07 01:23:32;;;;;;;3.33;1.23;;;;;;;;;;5090331;28;20025;-64
2022/01/07 01:25:58;;;;;;;3.63;1.30;;;;;;;;;;5084389;28;20547;-65
2022/01/07 01:28:25;;;;;;;4.07;1.20;;;;;;;;;;5081986;28;20040;-69
2022/01/07 01:30:51;;;;;;;4.93;1.20;;;;;;;;;;5082507;28;20113;-63
2022/01/07 01:33:18;;;;;;;3.45;1.20;;;;;;;;;;5082876;28;20363;-64
2022/01/07 01:35:44;;;;;;;10.50;1.40;;;;;;;;;;5076763;28;20066;-63
2022/01/07 01:38:11;;;;;;;2.15;1.17;;;;;;;;;;5073404;28;20476;-66
2022/01/07 01:40:37;;;;;;;2.25;1.20;;;;;;;;;;5073205;28;20020;-66
2022/01/07 01:43:03;;;;;;;3.30;1.52;;;;;;;;;;5073584;28;20364;-67
2022/01/07 01:45:29;;;;;;;2.95;1.08;;;;;;;;;;5055767;28;20529;-62
2022/01/07 01:47:55;;;;;;;3.25;1.25;;;;;;;;;;5093268;28;20132;-62
2022/01/07 01:50:23;;;;;;;7.97;1.40;;;;;;;;;;5113301;28;20382;-68
2022/01/07 01:52:50;;;;;;;2.85;1.20;;;;;;;;;;5113674;28;20104;-64
2022/01/07 01:55:17;;;;;;;2.88;1.20;;;;;;;;;;5113585;28;20470;-65
2022/01/07 01:57:44;;;;;;;4.07;1.40;;;;;;;;;;5085847;28;20038;-63
2022/01/07 02:00:10;;;;;;;3.28;1.20;;;;;;;;;;5082820;28;20107;-64
2022/01/07 02:02:37;;;;;;;5.97;1.48;;;;;;;;;;5086202;28;20020;-62
2022/01/07 02:05:03;;;;;;;3.03;1.20;;;;;;;;;;5080595;28;20035;-63
2022/01/07 02:07:29;;;;;;;3.28;1.20;;;;;;;;;;5065667;28;20056;-65
2022/01/07 02:09:55;;;;;;;3.47;1.20;;;;;;;;;;5082693;28;20035;-63
2022/01/07 02:12:21;;;;;;;2.05;1.00;;;;;;;;;;5082229;28;20021;-64
2022/01/07 02:14:57;;;;;;;4.97;1.60;;;;;;;;;;5083593;28;20025;-73
2022/01/07 02:17:25;;;;;;;4.90;1.30;;;;;;;;;;5083975;28;20028;-68
2022/01/07 02:19:51;;;;;;;2.90;1.10;;;;;;;;;;5079976;28;20145;-63
2022/01/07 02:22:17;;;;;;;3.35;1.23;;;;;;;;;;5083442;28;20016;-66
2022/01/07 02:24:44;;;;;;;3.03;1.17;;;;;;;;;;5081875;28;20027;-69
2022/01/07 02:27:11;;;;;;;2.15;1.00;;;;;;;;;;5079927;28;20049;-68
2022/01/07 02:29:38;;;;;;;3.35;1.20;;;;;;;;;;5074064;28;20036;-65
2022/01/07 02:32:04;;;;;;;4.47;1.42;;;;;;;;;;5089376;28;20028;-67
2022/01/07 02:34:30;;;;;;;4.93;1.60;;;;;;;;;;5093445;28;20052;-69
2022/01/07 02:36:56;;;;;;;5.80;1.38;;;;;;;;;;5093045;28;20059;-72
2022/01/07 02:39:22;;;;;;;8.60;1.38;;;;;;;;;;5089064;28;20032;-71
2022/01/07 02:41:48;;;;;;;4.78;1.45;;;;;;;;;;5081920;28;20035;-69
2022/01/07 02:44:14;;;;;;;3.50;1.15;;;;;;;;;;5080107;28;20391;-65
2022/01/07 02:46:41;;;;;;;4.15;1.40;;;;;;;;;;5083289;28;20482;-64
2022/01/07 02:49:11;;;;;;;3.58;1.33;;;;;;;;;;5078346;28;20029;-67
2022/01/07 02:51:37;;;;;;;6.05;1.60;;;;;;;;;;5084631;28;20020;-67
2022/01/07 02:54:03;;;;;;;4.05;1.50;;;;;;;;;;5085602;28;20043;-63
2022/01/07 02:56:29;;;;;;;4.47;1.52;;;;;;;;;;5082735;28;20024;-73
2022/01/07 02:58:55;;;;;;;3.53;1.35;;;;;;;;;;5083576;28;20039;-63
2022/01/07 03:01:21;;;;;;;1.50;1.20;;;;;;;;;;5084893;28;20029;-71
2022/01/07 03:03:47;;;;;;;3.42;1.40;;;;;;;;;;5061420;28;20429;-68
2022/01/07 03:06:13;;;;;;;5.45;1.52;;;;;;;;;;5082871;28;20032;-63
2022/01/07 03:08:39;;;;;;;4.43;1.25;;;;;;;;;;5086248;28;20464;-66
2022/01/07 03:11:05;;;;;;;5.00;1.20;;;;;;;;;;5093748;28;20020;-64
2022/01/07 03:13:31;;;;;;;3.03;1.33;;;;;;;;;;5097161;28;20028;-69
2022/01/07 03:15:57;;;;;;;2.45;1.25;;;;;;;;;;5096804;28;20455;-69
2022/01/07 03:18:23;;;;;;;2.40;0.90;;;;;;;;;;5096860;28;20027;-71
2022/01/07 03:20:49;;;;;;;2.53;1.30;;;;;;;;;;5091130;28;20357;-63
2022/01/07 03:23:15;;;;;;;3.78;1.15;;;;;;;;;;5085073;28;20028;-63
2022/01/07 03:25:42;;;;;;;4.88;1.20;;;;;;;;;;5085396;28;20016;-63
2022/01/07 03:28:10;;;;;;;3.08;1.33;;;;;;;;;;5086488;28;20518;-62
2022/01/07 03:30:36;;;;;;;3.28;1.08;;;;;;;;;;5085180;28;20487;-62
2022/01/07 03:33:02;;;;;;;10.02;1.15;;;;;;;;;;5086162;28;20024;-63
2022/01/07 03:35:28;;;;;;;3.50;1.42;;;;;;;;;;5084935;28;20035;-63
2022/01/07 03:37:54;;;;;;;5.35;1.10;;;;;;;;;;5084799;28;20032;-64
2022/01/07 03:40:20;;;;;;;2.92;1.20;;;;;;;;;;5066668;28;20504;-63
2022/01/07 03:42:47;;;;;;;1.77;1.00;;;;;;;;;;5086601;28;20467;-63
2022/01/07 03:45:13;;;;;;;2.55;1.10;;;;;;;;;;5068691;28;20020;-62
2022/01/07 03:47:40;;;;;;;4.80;1.30;;;;;;;;;;5086576;28;20028;-62
2022/01/07 03:50:10;;;;;;;1.80;1.13;;;;;;;;;;5066412;28;20388;-63
2022/01/07 03:52:36;;;;;;;3.95;1.23;;;;;;;;;;5086434;28;20104;-63
2022/01/07 03:55:03;;;;;;;3.20;1.30;;;;;;;;;;5085218;28;20020;-63
2022/01/07 03:57:29;;;;;;;2.35;1.05;;;;;;;;;;5066382;28;20107;-63
2022/01/07 03:59:55;;;;;;;4.97;1.40;;;;;;;;;;5085209;28;20111;-63
2022/01/07 04:02:21;;;;;;;3.50;1.30;;;;;;;;;;5085213;28;20459;-63
2022/01/07 04:04:47;;;;;;;3.22;1.10;;;;;;;;;;5086174;28;20069;-63
2022/01/07 04:07:13;;;;;;;4.65;1.00;;;;;;;;;;5085276;28;20028;-63
2022/01/07 04:09:40;;;;;;;1.73;1.20;;;;;;;;;;5082928;28;20029;-63
2022/01/07 04:12:06;;;;;;;2.30;1.08;;;;;;;;;;5084367;28;20023;-63
2022/01/07 04:14:32;;;;;;;2.58;1.10;;;;;;;;;;5084470;28;20028;-63
2022/01/07 04:16:59;;;;;;;2.28;1.15;;;;;;;;;;5085713;28;20162;-62
2022/01/07 04:19:25;;;;;;;2.10;1.10;;;;;;;;;;5066840;28;20498;-66
2022/01/07 04:21:51;;;;;;;2.83;1.13;;;;;;;;;;5086254;28;20069;-64
2022/01/07 04:24:17;;;;;;;1.73;1.00;;;;;;;;;;5085185;28;20032;-62
2022/01/07 04:26:43;;;;;;;3.17;1.08;;;;;;;;;;5086596;28;20097;-62
2022/01/07 04:29:09;;;;;;;3.65;1.40;;;;;;;;;;5085677;28;20036;-62
2022/01/07 04:31:35;;;;;;;2.42;1.10;;;;;;;;;;5083956;28;20391;-63
2022/01/07 04:34:01;;;;;;;4.57;1.00;;;;;;;;;;5084944;28;20173;-62
2022/01/07 04:36:27;;;;;;;2.28;1.00;;;;;;;;;;5083660;28;20111;-63
2022/01/07 04:38:53;;;;;;;1.58;0.90;;;;;;;;;;5083168;28;20048;-63
2022/01/07 04:41:19;;;;;;;2.15;1.17;;;;;;;;;;5085652;28;20499;-63
2022/01/07 04:43:45;;;;;;;2.00;1.10;;;;;;;;;;5083845;28;20024;-63
2022/01/07 04:46:11;;;;;;;2.58;1.30;;;;;;;;;;5084431;28;20084;-62
2022/01/07 04:48:37;;;;;;;3.08;1.10;;;;;;;;;;5083328;28;20042;-62
2022/01/07 04:51:03;;;;;;;6.20;1.33;;;;;;;;;;5080801;28;20024;-62
2022/01/07 04:53:29;;;;;;;6.93;1.02;;;;;;;;;;5075000;28;20429;-62
2022/01/07 04:55:58;;;;;;;5.72;1.20;;;;;;;;;;5074745;28;20021;-63
2022/01/07 04:58:24;;;;;;;2.60;1.33;;;;;;;;;;5074681;28;20043;-67
2022/01/07 05:00:51;;;;;;;2.45;1.25;;;;;;;;;;5075275;28;20073;-62
2022/01/07 05:03:17;;;;;;;2.08;1.25;;;;;;;;;;5084138;28;20460;-62
2022/01/07 05:05:47;;;;;;;3.22;1.38;;;;;;;;;;5082266;28;20108;-64
2022/01/07 05:08:15;;;;;;;3.00;1.15;;;;;;;;;;5085006;28;20476;-63
2022/01/07 05:10:42;;;;;;;6.97;1.63;;;;;;;;;;5083212;28;20023;-62
2022/01/07 05:13:08;;;;;;;5.13;1.27;;;;;;;;;;5085225;28;20025;-63
2022/01/07 05:15:35;;;;;;;2.75;1.20;;;;;;;;;;5082964;28;20085;-62
2022/01/07 05:18:01;;;;;;;2.28;1.08;;;;;;;;;;5065177;28;20026;-63
2022/01/07 05:20:27;;;;;;;7.22;1.10;;;;;;;;;;5082816;28;20463;-63
2022/01/07 05:22:53;;;;;;;8.25;1.10;;;;;;;;;;5083164;28;20104;-62
2022/01/07 05:25:21;;;;;;;3.60;1.20;;;;;;;;;;5083403;28;20527;-63
2022/01/07 05:27:47;;;;;;;2.25;1.20;;;;;;;;;;5084422;28;20048;-63
2022/01/07 05:30:13;;;;;;;2.40;1.33;;;;;;;;;;5085090;28;20028;-63
2022/01/07 05:32:39;;;;;;;4.80;1.30;;;;;;;;;;5084924;28;20024;-63
2022/01/07 05:35:06;;;;;;;2.88;1.33;;;;;;;;;;5082966;28;20035;-62
2022/01/07 05:37:32;;;;;;;1.92;1.20;;;;;;;;;;5083084;28;20451;-63
2022/01/07 05:39:58;;;;;;;1.85;1.15;;;;;;;;;;5084153;28;20028;-62
2022/01/07 05:42:25;;;;;;;4.03;1.33;;;;;;;;;;5082022;28;20036;-66
2022/01/07 05:44:51;;;;;;;2.55;1.20;;;;;;;;;;5082043;28;20080;-62
2022/01/07 05:47:17;;;;;;;8.75;1.33;;;;;;;;;;5084418;28;20050;-63
2022/01/07 05:49:43;;;;;;;2.67;1.08;;;;;;;;;;5085030;28;20071;-62
2022/01/07 05:52:09;;;;;;;6.57;1.50;;;;;;;;;;5093702;28;20182;-62
2022/01/07 05:54:35;;;;;;;4.40;1.30;;;;;;;;;;5093694;28;20031;-63
2022/01/07 05:57:01;;;;;;;5.13;1.45;;;;;;;;;;5093728;28;20103;-62
2022/01/07 05:59:27;;;;;;;3.00;1.27;;;;;;;;;;5093869;28;20049;-62
2022/01/07 06:01:53;;;;;;;5.45;1.13;;;;;;;;;;5084284;28;20057;-65
2022/01/07 06:04:19;;;;;;;5.57;1.40;;;;;;;;;;5084030;28;20028;-62
2022/01/07 06:06:45;;;;;;;4.25;1.42;;;;;;;;;;5060743;28;20132;-62
2022/01/07 06:09:11;;;;;;;6.85;1.40;;;;;;;;;;5081898;28;20033;-63
2022/01/07 06:11:37;;;;;;;6.53;1.60;;;;;;;;;;5082385;28;20024;-62
2022/01/07 06:14:03;;;;;;;10.30;1.73;;;;;;;;;;5082933;28;20112;-61
2022/01/07 06:16:29;;;;;;;8.05;1.55;;;;;;;;;;5083807;28;20150;-63
2022/01/07 06:18:56;;;;;;;3.20;1.27;;;;;;;;;;5082758;28;20028;-62
2022/01/07 06:21:22;;;;;;;11.45;2.20;;;;;;;;;;5073264;28;20177;-62
2022/01/07 06:23:49;;;;;;;13.82;1.33;;;;;;;;;;5073374;28;20115;-64
2022/01/07 06:26:15;;;;;;;5.85;1.45;;;;;;;;;;5054679;28;20486;-66
2022/01/07 06:28:41;;;;;;;26.52;2.47;;;;;;;;;;5087925;28;20040;-70
2022/01/07 06:31:07;;;;;;;13.90;2.22;;;;;;;;;;5073031;28;20027;-70
2022/01/07 06:33:33;;;;;;;13.43;1.80;;;;;;;;;;5081986;28;20028;-71
2022/01/07 06:35:59;;;;;;;18.40;2.40;;;;;;;;;;5067081;28;20024;-70
2022/01/07 06:38:25;;;;;;;13.48;2.00;;;;;;;;;;5054866;28;20360;-72
2022/01/07 06:40:51;;;;;;;13.55;2.38;;;;;;;;;;5081998;28;20477;-77
2022/01/07 06:43:17;;;;;;;12.45;2.05;;;;;;;;;;5094068;28;20099;-70
2022/01/07 06:45:43;;;;;;;23.73;2.10;;;;;;;;;;5070092;28;20024;-73
2022/01/07 06:48:09;;;;;;;7.57;2.42;;;;;;;;;;5083508;28;20064;-72
2022/01/07 06:50:35;;;;;;;16.13;2.17;;;;;;;;;;5060490;28;20426;-71
2022/01/07 06:53:02;;;;;;;8.95;2.33;;;;;;;;;;5083157;28;20020;-73
2022/01/07 06:55:28;;;;;;;10.00;2.40;;;;;;;;;;5073377;28;20025;-74
2022/01/07 06:57:54;;;;;;;13.60;2.30;;;;;;;;;;5091182;28;20506;-74
2022/01/07 07:00:20;;;;;;;13.45;2.40;;;;;;;;;;5077261;28;20028;-73
2022/01/07 07:02:46;;;;;;;6.90;2.25;;;;;;;;;;5093706;28;20020;-74
2022/01/07 07:05:17;;;;;;;18.73;2.50;;;;;;;;;;5092583;28;20036;-75
2022/01/07 07:07:44;;;;;;;8.48;2.25;;;;;;;;;;5091340;28;20028;-74
2022/01/07 07:10:10;;;;;;;6.75;2.10;;;;;;;;;;5090237;28;20032;-73
2022/01/07 07:12:36;;;;;;;7.72;2.40;;;;;;;;;;5089851;28;20036;-73
2022/01/07 07:15:02;;;;;;;6.85;2.30;;;;;;;;;;5088824;28;20024;-74
2022/01/07 07:17:28;;;;;;;7.65;2.05;;;;;;;;;;5089539;28;20055;-74
2022/01/07 07:19:55;;;;;;;10.10;2.50;;;;;;;;;;5084544;28;20101;-73
2022/01/07 07:22:21;;;;;;;5.78;2.45;;;;;;;;;;5073672;28;20037;-72
2022/01/07 07:24:47;;;;;;;5.55;2.10;;;;;;;;;;5081978;28;20103;-77
2022/01/07 07:27:13;;;;;;;6.18;2.40;;;;;;;;;;5081805;28;20097;-75
2022/01/07 07:29:39;;;;;;;6.93;2.40;;;;;;;;;;5087321;28;20562;-74
2022/01/07 07:32:09;;;;;;;9.95;2.40;;;;;;;;;;5085468;28;20079;-74
2022/01/07 07:34:57;;;;;;;13.27;2.13;;;;;;;;;;5081986;28;20379;-73
2022/01/07 07:37:23;;;;;;;8.90;2.55;;;;;;;;;;5061425;28;20024;-72
2022/01/07 07:39:49;;;;;;;7.85;2.47;;;;;;;;;;5081326;28;20370;-72
2022/01/07 07:42:15;;;;;;;4.55;1.80;;;;;;;;;;5082142;28;20074;-73
2022/01/07 07:44:41;;;;;;;6.32;2.35;;;;;;;;;;5078670;28;20036;-74
2022/01/07 07:47:07;;;;;;;4.82;2.17;;;;;;;;;;5056468;28;20017;-73
2022/01/07 07:49:33;;;;;;;10.63;2.63;;;;;;;;;;5094889;28;20399;-73
2022/01/07 07:51:59;;;;;;;5.45;1.98;;;;;;;;;;5088930;28;20020;-75
2022/01/07 07:54:25;;;;;;;9.45;2.05;;;;;;;;;;5096242;28;20024;-75
2022/01/07 07:56:51;;;;;;;7.78;2.20;;;;;;;;;;5096460;28;20033;-74
2022/01/07 07:59:18;;;;;;;6.13;2.03;;;;;;;;;;5094029;28;20088;-67
2022/01/07 08:01:44;;;;;;;3.60;1.77;;;;;;;;;;5085404;28;20077;-77
2022/01/07 08:04:13;;;;;;;4.90;1.90;;;;;;;;;;5082576;28;20032;-78
2022/01/07 08:06:39;;;;;;;11.48;2.45;;;;;;;;;;5070906;28;20154;-81
2022/01/07 08:09:05;;;;;;;5.28;2.00;;;;;;;;;;5091494;28;20036;-76
2022/01/07 08:11:38;;;;;;;9.25;2.08;;;;;;;;;;5095649;28;20029;-80
2022/01/07 08:16:49;;;;;;;4.78;1.85;;;;;;;;;;5092609;28;20499;-81
2022/01/07 08:19:15;;;;;;;8.88;2.03;;;;;;;;;;5088697;28;20020;-80
2022/01/07 08:21:41;;;;;;;8.23;1.90;;;;;;;;;;5105060;28;20418;-75
2022/01/07 08:24:07;;;;;;;4.63;1.80;;;;;;;;;;5059210;28;20392;-76
2022/01/07 08:26:33;;;;;;;5.68;2.03;;;;;;;;;;5083488;28;20469;-76
2022/01/07 08:29:09;;;;;;;7.72;2.00;;;;;;;;;;5086517;28;20036;-74
2022/01/07 08:36:52;;;;;;;12.40;2.00;;;;;;;;;;5085463;28;20043;-74
2022/01/07 08:39:18;;;;;;;6.30;2.03;;;;;;;;;;5057768;28;20115;-73
2022/01/07 08:41:44;;;;;;;14.55;2.35;;;;;;;;;;5058507;28;20543;-75
2022/01/07 08:44:11;;;;;;;8.60;2.13;;;;;;;;;;5113706;28;20031;-74
2022/01/07 08:46:38;;;;;;;8.77;2.17;;;;;;;;;;5115656;28;20023;-75
2022/01/07 08:49:04;;;;;;;10.23;2.08;;;;;;;;;;5088379;28;20536;-75
2022/01/07 08:51:30;;;;;;;10.85;2.05;;;;;;;;;;5091465;28;20027;-75
2022/01/07 08:53:57;;;;;;;8.98;2.17;;;;;;;;;;5067986;28;20024;-75
2022/01/07 08:56:26;;;;;;;7.47;2.03;;;;;;;;;;5066263;28;20105;-75
2022/01/07 08:58:52;;;;;;;7.85;2.30;;;;;;;;;;5059037;28;20068;-76
2022/01/07 09:01:19;;;;;;;10.70;2.50;;;;;;;;;;5088127;28;20031;-74
2022/01/07 09:03:45;;;;;;;7.65;2.20;;;;;;;;;;5080036;28;20520;-75
2022/01/07 09:06:11;;;;;;;9.68;2.70;;;;;;;;;;5076522;28;20487;-74
2022/01/07 09:08:37;;;;;;;6.65;2.00;;;;;;;;;;5078466;28;20032;-74
2022/01/07 09:11:03;;;;;;;10.35;2.42;;;;;;;;;;5057379;28;20455;-74
2022/01/07 09:13:29;;;;;;;7.07;2.30;;;;;;;;;;5089705;28;20016;-75
2022/01/07 09:15:55;;;;;;;9.07;2.60;;;;;;;;;;5089638;28;20034;-74
2022/01/07 09:18:21;;;;;;;8.68;2.40;;;;;;;;;;5071695;28;20085;-76
2022/01/07 09:20:48;;;;;;;6.88;2.42;;;;;;;;;;5093717;28;20024;-76
2022/01/07 09:23:14;;;;;;;7.32;2.40;;;;;;;;;;5089828;28;20024;-76
2022/01/07 09:25:40;;;;;;;10.15;2.97;;;;;;;;;;5061608;28;20029;-75
2022/01/07 09:28:07;;;;;;;7.72;2.30;;;;;;;;;;5084674;28;20047;-74
2022/01/07 09:30:34;;;;;;;9.85;3.00;;;;;;;;;;5092839;28;20044;-73
2022/01/07 09:33:00;;;;;;;6.80;2.22;;;;;;;;;;5092849;28;20032;-74
2022/01/07 09:35:26;;;;;;;10.57;2.10;;;;;;;;;;5081840;28;20028;-74
2022/01/07 09:37:53;;;;;;;9.20;2.50;;;;;;;;;;5081723;28;20020;-74
2022/01/07 09:40:19;;;;;;;9.05;2.40;;;;;;;;;;5077034;28;20487;-73
2022/01/07 09:42:55;;;;;;;8.18;2.45;;;;;;;;;;5072546;28;20542;-73
2022/01/07 09:45:23;;;;;;;9.05;2.40;;;;;;;;;;5083077;28;20021;-73
2022/01/07 09:47:49;;;;;;;13.65;2.72;;;;;;;;;;5084565;28;20024;-70
2022/01/07 09:50:15;;;;;;;28.08;2.83;;;;;;;;;;5081115;28;20036;-73
2022/01/07 09:52:41;;;;;;;16.75;2.55;;;;;;;;;;5088454;28;20051;-69
2022/01/07 09:55:07;;;;;;;20.30;2.63;;;;;;;;;;5083174;28;20078;-72
2022/01/07 09:57:33;;;;;;;15.95;2.63;;;;;;;;;;5082575;28;20451;-69
2022/01/07 10:00:00;;;;;;;15.52;2.38;;;;;;;;;;5084056;28;20102;-72
2022/01/07 10:02:26;;;;;;;21.83;2.38;;;;;;;;;;5082373;28;20023;-73
2022/01/07 10:04:52;;;;;;;13.57;2.25;;;;;;;;;;5087702;28;20093;-77
2022/01/07 10:07:22;;;;;;;8.50;2.25;;;;;;;;;;5082994;28;20016;-74
2022/01/07 10:09:57;;;;;;;16.17;2.83;;;;;;;;;;5075339;28;20460;-74
2022/01/07 10:12:24;;;;;;;28.98;3.47;;;;;;;;;;5061549;28;20074;-75
2022/01/07 10:15:08;;;;;;;32.45;4.22;;;;;;;;;;5078314;28;20035;-74
2022/01/07 10:17:34;;;;;;;32.17;3.15;;;;;;;;;;5060415;28;20043;-76
2022/01/07 10:20:01;;;;;;;23.42;2.78;;;;;;;;;;5074973;28;20538;-76
2022/01/07 10:22:27;;;;;;;18.63;3.53;;;;;;;;;;5073535;28;20024;-76
2022/01/07 10:25:01;;;;;;;28.85;3.70;;;;;;;;;;5059164;28;20024;-77
2022/01/07 10:27:38;;;;;;;20.42;2.53;;;;;;;;;;5089033;28;20040;-75
2022/01/07 10:30:11;;;;;;;19.92;2.80;;;;;;;;;;5077999;28;20040;-77
2022/01/07 10:32:38;;;;;;;12.98;2.88;;;;;;;;;;5060800;28;20083;-78
2022/01/07 10:35:15;;;;;;;17.58;2.63;;;;;;;;;;5096355;28;20028;-78
2022/01/07 10:37:49;;;;;;;13.77;2.97;;;;;;;;;;5095940;28;20027;-77
2022/01/07 10:40:28;;;;;;;19.42;2.58;;;;;;;;;;5085598;28;20493;-77
2022/01/07 10:42:55;;;;;;;10.25;2.50;;;;;;;;;;5075037;28;20403;-77
2022/01/07 10:45:21;;;;;;;12.10;3.08;;;;;;;;;;5082520;28;20030;-78
2022/01/07 10:47:51;;;;;;;11.57;2.88;;;;;;;;;;5087483;28;20035;-75
2022/01/07 10:50:18;;;;;;;9.25;2.15;;;;;;;;;;5091953;28;20035;-74
2022/01/07 10:52:44;;;;;;;10.60;2.28;;;;;;;;;;5085953;28;20032;-73
2022/01/07 10:55:18;;;;;;;13.43;2.08;;;;;;;;;;5078658;28;20024;-72
2022/01/07 10:57:46;;;;;;;14.30;2.08;;;;;;;;;;5058767;28;20077;-73
2022/01/07 11:00:13;;;;;;;9.70;2.40;;;;;;;;;;5079911;28;20387;-72
2022/01/07 11:02:40;;;;;;;12.68;2.17;;;;;;;;;;5093125;28;20523;-72
2022/01/07 11:05:07;;;;;;;11.50;2.40;;;;;;;;;;5067938;28;20035;-72
2022/01/07 11:07:33;;;;;;;11.63;2.55;;;;;;;;;;5082852;28;20051;-72
2022/01/07 11:09:59;;;;;;;15.88;1.98;;;;;;;;;;5087502;28;20036;-72
2022/01/07 11:12:27;;;;;;;7.95;1.70;;;;;;;;;;5087598;28;20043;-68
2022/01/07 11:14:53;;;;;;;19.30;2.60;;;;;;;;;;5086997;28;20028;-72
2022/01/07 11:17:22;;;;;;;12.25;2.65;;;;;;;;;;5092981;28;20020;-73
2022/01/07 11:19:52;;;;;;;9.23;1.73;;;;;;;;;;5062201;28;20036;-71
2022/01/07 11:22:19;;;;;;;10.57;2.05;;;;;;;;;;5079672;28;20542;-73
2022/01/07 11:24:50;;;;;;;10.20;2.35;;;;;;;;;;5085646;28;20517;-72
2022/01/07 11:27:18;;;;;;;8.73;2.00;;;;;;;;;;5092698;28;20039;-73
2022/01/07 11:30:03;;;;;;;13.98;2.33;;;;;;;;;;5082576;28;20045;-72
2022/01/07 11:32:32;;;;;;;11.95;2.53;;;;;;;;;;5076462;28;20040;-72
2022/01/07 11:35:22;;;;;;;14.90;2.58;;;;;;;;;;5076585;28;20025;-70
2022/01/07 11:37:48;;;;;;;9.15;2.45;;;;;;;;;;5093001;28;20042;-71
2022/01/07 11:40:29;;;;;;;16.52;3.00;;;;;;;;;;5096321;28;20115;-72
2022/01/07 11:43:13;;;;;;;8.27;2.28;;;;;;;;;;5076086;28;20031;-72
2022/01/07 11:45:41;;;;;;;12.20;2.17;;;;;;;;;;5076969;28;20055;-71
2022/01/07 11:48:15;;;;;;;10.48;2.65;;;;;;;;;;5103854;28;20028;-75
2022/01/07 11:50:56;;;;;;;8.05;2.30;;;;;;;;;;5099243;28;20496;-76
2022/01/07 11:53:22;;;;;;;10.45;3.08;;;;;;;;;;5117069;28;20016;-74
2022/01/07 11:55:49;;;;;;;15.02;2.80;;;;;;;;;;5078810;28;20024;-74
2022/01/07 11:58:16;;;;;;;9.38;2.58;;;;;;;;;;5088727;28;20020;-76
2022/01/07 12:00:59;;;;;;;13.50;2.17;;;;;;;;;;5082856;28;20083;-76
2022/01/07 12:03:36;;;;;;;13.93;2.70;;;;;;;;;;5058540;28;20088;-75
2022/01/07 12:06:32;;;;;;;10.60;2.33;;;;;;;;;;5076199;28;20036;-75
2022/01/07 12:09:05;;;;;;;11.75;2.50;;;;;;;;;;5067106;28;20051;-75
2022/01/07 12:11:33;;;;;;;12.80;2.40;;;;;;;;;;5076933;28;20126;-76
2022/01/07 12:13:59;;;;;;;8.88;2.20;;;;;;;;;;5058963;28;20029;-76
2022/01/07 12:16:26;;;;;;;14.43;2.63;;;;;;;;;;5071014;28;20468;-70
2022/01/07 12:18:55;;;;;;;9.27;2.38;;;;;;;;;;5084944;28;20021;-72
2022/01/07 12:21:21;;;;;;;10.70;2.25;;;;;;;;;;5058192;28;20020;-75
2022/01/07 12:23:47;;;;;;;11.73;2.65;;;;;;;;;;5076167;28;20029;-76
2022/01/07 12:26:13;;;;;;;8.57;2.35;;;;;;;;;;5076371;28;20475;-76
2022/01/07 12:28:42;;;;;;;9.32;2.55;;;;;;;;;;5059566;28;20087;-75
2022/01/07 12:31:10;;;;;;;11.73;2.70;;;;;;;;;;5058624;28;20484;-75
2022/01/07 12:33:38;;;;;;;13.30;2.85;;;;;;;;;;5075616;28;20031;-75
2022/01/07 12:36:04;;;;;;;7.53;2.42;;;;;;;;;;5087252;28;20020;-75
2022/01/07 12:38:30;;;;;;;12.98;3.15;;;;;;;;;;5089056;28;20450;-75
2022/01/07 12:40:59;;;;;;;13.35;2.85;;;;;;;;;;5096423;28;20024;-75
2022/01/07 12:43:30;;;;;;;7.82;2.88;;;;;;;;;;5081606;28;20057;-76
2022/01/07 12:46:01;;;;;;;13.15;2.58;;;;;;;;;;5092797;28;20024;-75
2022/01/07 12:48:30;;;;;;;11.75;2.13;;;;;;;;;;5065038;28;20025;-75
2022/01/07 12:51:00;;;;;;;7.90;2.35;;;;;;;;;;5090754;28;20525;-76
2022/01/07 12:53:26;;;;;;;13.98;2.25;;;;;;;;;;5087029;28;20020;-76
2022/01/07 12:55:52;;;;;;;12.73;2.80;;;;;;;;;;5081463;28;20031;-75
2022/01/07 12:58:26;;;;;;;7.55;1.75;;;;;;;;;;5086649;28;20123;-74
2022/01/07 13:00:52;;;;;;;9.50;2.47;;;;;;;;;;5084740;28;20085;-75
2022/01/07 13:03:24;;;;;;;11.18;2.38;;;;;;;;;;5085310;28;20028;-75
2022/01/07 13:05:50;;;;;;;9.95;2.28;;;;;;;;;;5079486;28;20537;-76
2022/01/07 13:08:17;;;;;;;9.93;2.35;;;;;;;;;;5080229;28;20033;-76
2022/01/07 13:10:44;;;;;;;6.22;1.63;;;;;;;;;;5076107;28;20024;-76
2022/01/07 13:13:12;;;;;;;7.90;1.95;;;;;;;;;;5096035;28;20020;-76
2022/01/07 13:15:41;;;;;;;11.23;1.65;;;;;;;;;;5085200;28;20036;-75
2022/01/07 13:18:13;;;;;;;11.43;2.38;;;;;;;;;;5075042;28;20020;-74
2022/01/07 13:20:39;;;;;;;8.27;1.92;;;;;;;;;;5074908;28;20112;-75
2022/01/07 13:23:05;;;;;;;8.45;1.85;;;;;;;;;;5074894;28;20083;-75
2022/01/07 13:25:31;;;;;;;12.35;2.03;;;;;;;;;;5085297;28;20028;-75
2022/01/07 13:27:57;;;;;;;11.18;2.08;;;;;;;;;;5075861;28;20032;-75
2022/01/07 13:30:36;;;;;;;5.65;1.33;;;;;;;;;;5076989;28;20476;-75
2022/01/07 13:33:06;;;;;;;8.23;1.60;;;;;;;;;;5095262;28;20021;-75
2022/01/07 13:35:32;;;;;;;8.82;1.67;;;;;;;;;;5085086;28;20025;-76
2022/01/07 13:37:58;;;;;;;8.80;2.00;;;;;;;;;;5081382;28;20031;-75
2022/01/07 13:40:33;;;;;;;9.13;1.73;;;;;;;;;;5082359;28;20039;-74
2022/01/07 13:43:06;;;;;;;10.35;2.10;;;;;;;;;;5078266;28;20043;-74
2022/01/07 13:45:32;;;;;;;7.97;2.15;;;;;;;;;;5063838;28;20025;-70
2022/01/07 13:48:04;;;;;;;11.27;1.70;;;;;;;;;;5085968;28;20024;-69
2022/01/07 13:50:32;;;;;;;11.20;1.83;;;;;;;;;;5080891;28;20025;-68
2022/01/07 13:52:58;;;;;;;5.25;1.30;;;;;;;;;;5083889;28;20202;-70
2022/01/07 13:55:31;;;;;;;6.72;1.52;;;;;;;;;;5061354;28;20150;-71
2022/01/07 13:58:07;;;;;;;6.43;1.35;;;;;;;;;;5082523;28;20061;-70
2022/01/07 14:00:33;;;;;;;8.85;1.45;;;;;;;;;;5075412;28;20025;-71
2022/01/07 14:02:59;;;;;;;6.18;1.70;;;;;;;;;;5081489;28;20463;-71
2022/01/07 14:05:25;;;;;;;7.18;1.50;;;;;;;;;;5091985;28;20040;-70
2022/01/07 14:07:55;;;;;;;4.57;1.63;;;;;;;;;;5074607;28;20460;-70
2022/01/07 14:10:32;;;;;;;7.63;1.80;;;;;;;;;;5090923;28;20066;-70
2022/01/07 14:13:14;;;;;;;6.72;1.67;;;;;;;;;;5083604;28;20020;-70
2022/01/07 14:15:42;;;;;;;5.80;1.27;;;;;;;;;;5073398;28;20032;-69
2022/01/07 14:18:08;;;;;;;7.95;1.73;;;;;;;;;;5077332;28;20761;-69
2022/01/07 14:21:04;;;;;;;8.05;1.85;;;;;;;;;;5081798;28;20049;-69
2022/01/07 14:23:30;;;;;;;8.70;1.42;;;;;;;;;;5065996;28;20115;-70
2022/01/07 14:26:02;;;;;;;6.32;1.40;;;;;;;;;;5078918;28;20112;-70
2022/01/07 14:28:28;;;;;;;5.57;1.60;;;;;;;;;;5076813;28;20056;-70
2022/01/07 14:30:54;;;;;;;10.98;1.63;;;;;;;;;;5061735;28;20021;-70
2022/01/07 14:33:20;;;;;;;9.68;1.55;;;;;;;;;;5082779;28;20035;-70
2022/01/07 14:35:47;;;;;;;7.60;1.70;;;;;;;;;;5085979;28;20020;-71
2022/01/07 14:38:13;;;;;;;7.32;1.73;;;;;;;;;;5084031;28;20016;-71
2022/01/07 14:40:42;;;;;;;11.43;1.67;;;;;;;;;;5076574;28;20389;-71
2022/01/07 14:43:08;;;;;;;11.70;1.60;;;;;;;;;;5059702;28;20027;-70
2022/01/07 14:45:34;;;;;;;6.35;1.48;;;;;;;;;;5078889;28;20016;-70
2022/01/07 14:48:00;;;;;;;8.95;1.75;;;;;;;;;;5096995;28;20024;-69